Montevideo, MN (56265)

7:51 PM CDT on April 19, 2015 (GMT -0500)
Near Chinhinta Park | | Change Station
CLOSE
Current Station
Personal Weather Station
Location: Montevideo, MN
Elevation: 1024 ft
Nearby Weather Stations

Elev 1024 ft 44.94 °N, 95.72 °W | Updated 1 second ago

Mostly Cloudy
Mostly Cloudy
46.3 °F
Feels Like 42 °F
N
9.0
Wind Variable Wind from NW
Gusts 13.0 mph

Today
High -- | Low -- °F
--% Chance of Precip.
Yesterday
High -- | Low -- °F
Precip. -- in
6:31 AM 8:13 PM
New Moon, 2% visible
Pressure 29.70 in
Visibility 10.0 miles
Clouds Scattered Clouds 2300 ft
Scattered Clouds 3100 ft
Mostly Cloudy 4400 ft
Windchill 42 °F
Dew Point 39 °F
Humidity 75%
Rainfall 0.07 in
Snow Depth Not available.
UV 0 out of 12
Pollen 2.50 out of 12
Air Quality Not available.
Flu Activity Local Activity
METAR KMVE 200034Z AUTO 36019G29KT 10SM SCT023 SCT031 BKN044 08/05 A2970 RMK AO2

More Conditions Fewer Conditions

Pressure 29.70 in
Visibility 10.0 miles
Clouds Scattered Clouds 2300 ft
Scattered Clouds 3100 ft
Mostly Cloudy 4400 ft
Windchill 42 °F
Dew Point 39 °F
Humidity 75%
Rainfall 0.07 in
Snow Depth Not available.
UV 0 out of 12
Pollen 2.50 out of 12
Air Quality Not available.
Flu Activity Local Activity
METAR KMVE 200034Z AUTO 36019G29KT 10SM SCT023 SCT031 BKN044 08/05 A2970 RMK AO2

More Conditions Fewer Conditions

10-Day Weather Forecast

Almanac

Astronomy

Apr. 19, 2015 Rise Set
Actual Time
Civil Twilight
Nautical Twilight
Astronomical Twilight
Moon
Length of Visible Light
Length of Day
Tomorrow will be .
, % of the Moon is Illuminated

Today's Extremes

State Highs State Lows

Community

WunderPhotos

Upload Photos

1,815,065 photos uploaded!

WunderBlogs® & News

Nearby

Air Quality

  Air Quality AQ Index Pollutant
Not available.

Snow Depth

Station Depth Elevation

Earthquake Activity

City Distance Mag. Time & Date
Minimum magnitude displayed is 2.5.

Coastal Water Temperatures

Place Temperature

Stations

Nearby Weather Stations

Station Location Temp. Windchill Dew Point Humidity Wind Precip. Elev Updated Type